Time;durP1;ratioP1;P1;durP2;ratioP2;P2;SDS_P1;SDS_P2;PMS_P1;PMS_P2;Temp;Humidity;BMP_temperature;BMP_pressure;BME280_temperature;BME280_humidity;BME280_pressure;Samples;Min_cycle;Max_cycle;Signal;HPM_P1;HPM_P2
2023/04/29 00:00:09;;;;;;;8.13;3.50;;;;;;;15.25;82.61;101138.00;2070120;28;20064;-77
2023/04/29 00:01:34;;;;;;;7.38;3.75;;;;;;;15.24;82.26;101128.22;2079006;28;20038;-76
2023/04/29 00:02:56;;;;;;;6.55;3.63;;;;;;;15.23;82.45;101107.88;2078525;28;20049;-76
2023/04/29 00:04:20;;;;;;;6.25;3.30;;;;;;;15.23;82.66;101129.13;2078084;28;20037;-77
2023/04/29 00:05:42;;;;;;;10.18;3.83;;;;;;;15.22;82.14;101119.38;2077463;28;20037;-77
2023/04/29 00:07:04;;;;;;;10.00;3.22;;;;;;;15.23;81.32;101110.53;2078263;28;20651;-77
2023/04/29 00:08:27;;;;;;;7.55;3.50;;;;;;;15.23;80.65;101106.06;2069934;28;20034;-76
2023/04/29 00:09:49;;;;;;;8.85;3.67;;;;;;;15.26;80.54;101121.16;2075898;28;20053;-76
2023/04/29 00:11:11;;;;;;;9.70;3.80;;;;;;;15.26;80.94;101118.50;2078472;28;20049;-76
2023/04/29 00:12:33;;;;;;;7.30;4.32;;;;;;;15.27;81.18;101114.94;2077537;28;20069;-76
2023/04/29 00:13:55;;;;;;;8.18;3.35;;;;;;;15.27;81.74;101112.28;2078320;28;20037;-76
2023/04/29 00:15:17;;;;;;;8.23;4.00;;;;;;;15.26;82.91;101106.09;2077852;28;20081;-76
2023/04/29 00:16:39;;;;;;;12.45;3.97;;;;;;;15.25;84.22;101122.91;2069764;28;20057;-75
2023/04/29 00:18:02;;;;;;;7.90;3.90;;;;;;;15.25;85.33;101120.25;2070191;28;20512;-75
2023/04/29 00:19:25;;;;;;;9.02;4.22;;;;;;;15.26;85.69;101115.81;2069887;28;20407;-75
2023/04/29 00:20:47;;;;;;;7.85;3.50;;;;;;;15.26;86.35;101103.41;2061973;28;20058;-75
2023/04/29 00:22:09;;;;;;;10.90;4.20;;;;;;;15.25;87.22;101112.28;2069171;28;20046;-75
2023/04/29 00:23:30;;;;;;;6.78;3.85;;;;;;;15.24;87.60;101122.91;2070135;28;20561;-76
2023/04/29 00:24:53;;;;;;;11.40;3.97;;;;;;;15.24;87.87;101112.28;2063922;28;20041;-76
2023/04/29 00:26:14;;;;;;;10.60;4.05;;;;;;;15.23;88.05;101121.16;2075204;28;20113;-76
2023/04/29 00:27:41;;;;;;;8.05;4.22;;;;;;;15.23;87.89;101115.84;2070565;28;20108;-76
2023/04/29 00:29:03;;;;;;;7.85;3.70;;;;;;;15.20;87.70;101122.03;2077115;28;20914;-76
2023/04/29 00:30:26;;;;;;;9.25;4.53;;;;;;;15.18;87.56;101109.59;2070108;28;20041;-76
2023/04/29 00:31:49;;;;;;;8.85;3.83;;;;;;;15.15;87.95;101116.72;2066071;28;20054;-76
2023/04/29 00:33:10;;;;;;;7.43;3.40;;;;;;;15.15;88.62;101106.06;2068004;28;20050;-77
2023/04/29 00:34:34;;;;;;;8.48;3.42;;;;;;;15.15;88.66;101116.72;2067250;28;20058;-76
2023/04/29 00:35:56;;;;;;;7.10;3.95;;;;;;;15.16;89.15;101115.78;2071713;28;20045;-76
2023/04/29 00:37:19;;;;;;;8.63;3.72;;;;;;;15.18;89.83;101118.47;2077986;28;20085;-77
2023/04/29 00:38:42;;;;;;;11.43;4.15;;;;;;;15.18;89.73;101117.56;2065341;28;20086;-76
2023/04/29 00:40:05;;;;;;;8.10;3.85;;;;;;;15.15;89.55;101108.72;2070529;28;20053;-76
2023/04/29 00:41:27;;;;;;;7.90;3.53;;;;;;;15.14;88.93;101096.31;2072597;28;20134;-76
2023/04/29 00:42:50;;;;;;;9.45;3.75;;;;;;;15.14;87.61;101092.75;2078127;28;20057;-76
2023/04/29 00:44:11;;;;;;;7.82;3.45;;;;;;;15.15;87.00;101103.41;2077931;28;20096;-76
2023/04/29 00:45:33;;;;;;;6.45;3.70;;;;;;;15.18;87.14;101097.19;2072613;28;20511;-76
2023/04/29 00:46:56;;;;;;;7.32;3.72;;;;;;;15.21;87.79;101096.31;2077012;28;20502;-77
2023/04/29 00:48:19;;;;;;;7.70;4.07;;;;;;;15.24;88.94;101101.63;2077831;28;20165;-77
2023/04/29 00:49:42;;;;;;;5.32;3.40;;;;;;;15.26;89.86;101107.84;2068041;28;20769;-77
2023/04/29 00:51:05;;;;;;;8.05;3.70;;;;;;;15.26;89.94;101105.19;2077579;28;20050;-77
2023/04/29 00:52:29;;;;;;;9.43;4.32;;;;;;;15.24;89.66;101106.94;2077712;28;20071;-77
2023/04/29 00:53:51;;;;;;;7.82;3.58;;;;;;;15.21;89.77;101110.50;2079059;28;20532;-77
2023/04/29 00:55:13;;;;;;;8.43;4.30;;;;;;;15.20;90.17;101105.19;2070195;28;20054;-76
2023/04/29 00:56:36;;;;;;;8.15;3.50;;;;;;;15.18;90.29;101101.63;2070977;28;20092;-76
2023/04/29 00:57:58;;;;;;;7.32;3.72;;;;;;;15.20;90.17;101115.81;2069247;28;20387;-76
2023/04/29 00:59:21;;;;;;;;;;;;;;;15.19;90.13;101106.06;2065916;28;20054;-76
2023/04/29 01:00:45;;;;;;;8.15;3.90;;;;;;;15.16;90.62;101106.97;2067272;28;19921;-76
2023/04/29 01:02:08;;;;;;;7.07;3.20;;;;;;;15.15;90.84;101103.41;2077456;28;20046;-77
2023/04/29 01:03:31;;;;;;;7.07;3.33;;;;;;;15.15;90.41;101110.50;2080641;28;20033;-76
2023/04/29 01:04:54;;;;;;;;;;;;;;;15.12;89.94;101110.47;2068849;28;20097;-76
2023/04/29 01:06:28;;;;;;;9.63;3.83;;;;;;;15.12;89.82;101111.38;2075709;28;19921;-76
2023/04/29 01:07:59;;;;;;;9.27;3.50;;;;;;;15.13;89.50;101113.16;2070049;28;20065;-76
2023/04/29 01:09:34;;;;;;;9.45;3.95;;;;;;;15.12;89.60;101092.75;2070694;28;20149;-76
2023/04/29 01:11:07;;;;;;;7.35;3.92;;;;;;;15.11;90.54;101095.41;2078150;28;20794;-76
2023/04/29 01:12:39;;;;;;;7.13;3.42;;;;;;;15.10;91.34;101098.94;2064043;28;20050;-76
2023/04/29 01:14:02;;;;;;;8.02;4.07;;;;;;;15.08;91.72;101098.97;2066405;28;20108;-76
2023/04/29 01:15:30;;;;;;;8.38;4.00;;;;;;;15.10;91.90;101104.25;2069468;28;20069;-76
2023/04/29 01:17:00;;;;;;;7.32;3.72;;;;;;;15.09;92.11;101102.50;2070431;28;20042;-76
2023/04/29 01:18:28;;;;;;;6.65;3.75;;;;;;;15.08;92.25;101100.72;2068932;28;20141;-76
2023/04/29 01:19:54;;;;;;;8.25;4.22;;;;;;;15.04;93.10;101094.50;2076225;28;20050;-76
2023/04/29 01:21:18;;;;;;;9.20;3.80;;;;;;;15.01;93.88;101094.50;2072212;28;20104;-76
2023/04/29 01:22:51;;;;;;;9.77;3.60;;;;;;;15.01;93.88;101090.97;2112500;27;20433;-74
2023/04/29 01:24:14;;;;;;;8.73;3.55;;;;;;;14.98;93.84;101083.84;2103751;28;20048;-74
2023/04/29 01:25:38;;;;;;;8.32;3.50;;;;;;;14.98;92.89;101086.50;2099045;28;20163;-74
2023/04/29 01:27:26;;;;;;;8.70;3.92;;;;;;;14.97;92.92;101079.41;2102802;28;20496;-77
2023/04/29 01:28:55;;;;;;;11.43;4.07;;;;;;;14.97;94.22;101070.53;2101949;28;20043;-77
2023/04/29 01:30:28;;;;;;;8.55;4.15;;;;;;;14.96;95.56;101080.31;2099434;28;20066;-77
2023/04/29 01:32:03;;;;;;;7.72;4.10;;;;;;;14.94;96.98;101076.75;2093249;28;20145;-76
2023/04/29 01:33:34;;;;;;;10.27;4.22;;;;;;;14.91;97.83;101068.75;2093605;28;20114;-77
2023/04/29 01:35:03;;;;;;;10.40;3.78;;;;;;;14.89;97.65;101078.53;2100403;28;20094;-77
2023/04/29 01:36:34;;;;;;;10.85;3.65;;;;;;;14.90;97.33;101074.09;2100166;28;20045;-77
2023/04/29 01:38:08;;;;;;;10.27;4.30;;;;;;;14.88;97.15;101079.41;2102134;28;20127;-77
2023/04/29 01:39:45;;;;;;;7.38;4.20;;;;;;;14.87;97.44;101071.41;2103288;28;20052;-77
2023/04/29 01:41:14;;;;;;;7.70;4.13;;;;;;;14.85;97.98;101090.00;2094926;28;20080;-77
2023/04/29 01:42:42;;;;;;;9.52;4.20;;;;;;;14.84;98.52;101080.25;2103752;28;20496;-75
2023/04/29 01:44:09;;;;;;;8.30;4.13;;;;;;;14.83;98.79;101077.63;2103093;28;20060;-76
2023/04/29 01:45:34;;;;;;;13.38;4.85;;;;;;;14.82;99.11;101076.72;2105294;28;20172;-77
2023/04/29 01:46:57;;;;;;;8.65;4.20;;;;;;;14.81;99.03;101080.25;2109317;28;20032;-76
2023/04/29 01:48:26;;;;;;;14.23;4.10;;;;;;;14.80;98.76;101075.81;2103336;28;20086;-76
2023/04/29 01:49:49;;;;;;;;;;;;;;;14.77;98.56;101071.38;2101006;28;20036;-77
2023/04/29 01:51:11;;;;;;;8.77;4.10;;;;;;;14.75;98.95;101075.81;2107775;28;19931;-77
2023/04/29 01:52:33;;;;;;;7.68;4.10;;;;;;;14.75;99.65;101077.59;2099850;28;20496;-77
2023/04/29 01:53:56;;;;;;;9.27;4.60;;;;;;;14.76;100.00;101068.72;2099151;28;20052;-77
2023/04/29 01:55:20;;;;;;;7.32;4.05;;;;;;;14.75;100.00;101054.56;2102425;28;20052;-77
2023/04/29 01:56:56;;;;;;;8.95;3.90;;;;;;;14.75;100.00;101066.97;2101090;28;20055;-76
2023/04/29 01:58:45;;;;;;;9.00;4.20;;;;;;;14.74;100.00;101066.06;2102573;28;20040;-77
2023/04/29 02:00:27;;;;;;;;;;;;;;;14.71;99.85;101071.34;2080974;28;20561;-76
2023/04/29 02:01:49;;;;;;;9.25;4.20;;;;;;;14.70;99.94;101068.72;2100870;28;19920;-77
2023/04/29 02:03:12;;;;;;;;;;;;;;;14.68;100.00;101071.34;2097937;28;20167;-76
2023/04/29 02:04:36;;;;;;;12.88;4.90;;;;;;;14.68;100.00;101067.81;2094806;28;19920;-76
2023/04/29 02:05:58;;;;;;;12.25;4.65;;;;;;;14.70;100.00;101063.41;2097999;28;20134;-76
2023/04/29 02:07:20;;;;;;;9.32;4.40;;;;;;;14.71;100.00;101073.13;2100639;28;20032;-76
2023/04/29 02:08:43;;;;;;;8.70;3.72;;;;;;;14.73;100.00;101082.00;2096461;28;20052;-77
2023/04/29 02:10:05;;;;;;;9.30;4.15;;;;;;;14.73;100.00;101085.53;2096860;28;20089;-77
2023/04/29 02:11:31;;;;;;;10.45;4.40;;;;;;;14.73;100.00;101084.66;2096965;28;20500;-77
2023/04/29 02:12:53;;;;;;;8.00;4.10;;;;;;;14.72;100.00;101086.41;2089944;28;20041;-76
2023/04/29 02:14:16;;;;;;;9.23;4.38;;;;;;;14.72;100.00;101091.75;2089724;28;20057;-76
2023/04/29 02:15:38;;;;;;;11.27;4.68;;;;;;;14.73;100.00;101089.97;2097612;28;20032;-76
2023/04/29 02:17:01;;;;;;;10.57;4.53;;;;;;;14.72;100.00;101089.09;2095069;28;20053;-76
2023/04/29 02:18:22;;;;;;;10.20;4.57;;;;;;;14.72;100.00;101085.53;2097525;28;20036;-77
2023/04/29 02:19:45;;;;;;;6.90;4.65;;;;;;;14.71;100.00;101087.31;2098943;28;20121;-77
2023/04/29 02:21:06;;;;;;;11.52;4.63;;;;;;;14.75;100.00;101080.25;2099664;28;20052;-77
2023/04/29 02:22:30;;;;;;;9.38;4.57;;;;;;;14.75;100.00;101093.53;2098558;28;20092;-77
2023/04/29 02:23:54;;;;;;;8.48;4.18;;;;;;;14.75;100.00;101086.44;2109012;28;20067;-76
2023/04/29 02:25:17;;;;;;;9.10;4.47;;;;;;;14.75;100.00;101093.53;2102907;28;20110;-77
2023/04/29 02:26:41;;;;;;;12.65;4.45;;;;;;;14.74;100.00;101089.09;2096263;28;20100;-77
2023/04/29 02:28:02;;;;;;;11.02;4.45;;;;;;;14.71;100.00;101097.03;2108407;28;20075;-76
2023/04/29 02:29:28;;;;;;;10.27;4.65;;;;;;;14.69;100.00;101089.09;2100816;28;20670;-77
2023/04/29 02:30:51;;;;;;;8.55;4.25;;;;;;;14.68;100.00;101089.06;2101858;28;20074;-77
2023/04/29 02:32:14;;;;;;;10.57;4.18;;;;;;;14.67;100.00;101076.66;2101983;28;20052;-76
2023/04/29 02:33:35;;;;;;;5.88;3.90;;;;;;;14.68;100.00;101083.75;2095267;28;20063;-77
2023/04/29 02:34:58;;;;;;;7.90;3.95;;;;;;;14.68;100.00;101083.75;2091854;28;20036;-76
2023/04/29 02:36:20;;;;;;;8.93;4.43;;;;;;;14.70;100.00;101079.34;2088203;28;20058;-77
2023/04/29 02:37:43;;;;;;;8.73;4.57;;;;;;;14.70;100.00;101084.66;2087761;28;20078;-77
2023/04/29 02:39:05;;;;;;;6.00;3.85;;;;;;;14.71;100.00;101086.41;2086165;28;20471;-77
2023/04/29 02:40:27;;;;;;;8.88;4.05;;;;;;;14.72;100.00;101082.88;2103198;28;20102;-76
2023/04/29 02:41:54;;;;;;;10.30;4.70;;;;;;;14.75;100.00;101096.19;2093737;28;20064;-76
2023/04/29 02:43:16;;;;;;;6.95;4.78;;;;;;;14.73;100.00;101088.19;2099996;28;20562;-76
2023/04/29 02:44:40;;;;;;;7.00;4.20;;;;;;;14.73;100.00;101093.53;2099041;28;20079;-77
2023/04/29 02:46:03;;;;;;;9.60;4.70;;;;;;;14.73;100.00;101104.16;2100566;28;20117;-77
2023/04/29 02:47:25;;;;;;;9.18;4.20;;;;;;;14.71;100.00;101092.63;2101246;28;20052;-77
2023/04/29 02:48:46;;;;;;;8.85;4.45;;;;;;;14.70;100.00;101098.81;2092578;28;20140;-78
2023/04/29 02:50:10;;;;;;;7.90;4.35;;;;;;;14.69;100.00;101096.16;2093715;28;20135;-77
2023/04/29 02:51:32;;;;;;;10.50;4.28;;;;;;;14.68;100.00;101091.72;2088695;28;20052;-77
2023/04/29 02:52:54;;;;;;;8.85;4.15;;;;;;;14.66;100.00;101089.06;2091936;28;20079;-76
2023/04/29 02:54:16;;;;;;;11.38;4.50;;;;;;;14.65;100.00;101086.38;2100381;28;20059;-77
2023/04/29 02:55:38;;;;;;;9.93;3.85;;;;;;;14.64;100.00;101088.16;2091716;28;20075;-77
2023/04/29 02:57:06;;;;;;;8.57;4.28;;;;;;;14.65;100.00;101084.63;2087059;28;20045;-77
2023/04/29 02:58:28;;;;;;;9.38;4.00;;;;;;;14.65;100.00;101083.72;2090472;28;20069;-77
2023/04/29 02:59:50;;;;;;;8.25;4.57;;;;;;;14.66;100.00;101090.81;2091025;28;20041;-77
2023/04/29 03:01:12;;;;;;;9.45;4.53;;;;;;;14.66;100.00;101091.72;2091864;28;20059;-77
2023/04/29 03:02:35;;;;;;;10.48;4.90;;;;;;;14.66;100.00;101083.75;2099842;28;20097;-77
2023/04/29 03:03:57;;;;;;;10.07;4.18;;;;;;;14.65;100.00;101094.34;2094522;28;20425;-76
2023/04/29 03:05:20;;;;;;;10.15;4.00;;;;;;;14.65;100.00;101083.72;2099707;28;20039;-76
2023/04/29 03:06:42;;;;;;;7.07;3.88;;;;;;;14.66;100.00;101090.81;2095903;28;20105;-77
2023/04/29 03:08:06;;;;;;;8.98;4.22;;;;;;;14.66;100.00;101099.69;2093079;28;20479;-77
2023/04/29 03:09:28;;;;;;;9.63;4.07;;;;;;;14.65;100.00;101095.25;2092258;28;20044;-77
2023/04/29 03:10:51;;;;;;;8.60;4.18;;;;;;;14.65;100.00;101095.25;2089236;28;20136;-77
2023/04/29 03:12:16;;;;;;;8.77;4.32;;;;;;;14.65;100.00;101086.38;2092633;28;20619;-77
2023/04/29 03:13:38;;;;;;;8.75;3.92;;;;;;;14.65;100.00;101087.28;2086608;28;20438;-78
2023/04/29 03:15:03;;;;;;;7.43;3.78;;;;;;;14.69;100.00;101096.16;2083759;28;20062;-77
2023/04/29 03:16:28;;;;;;;6.90;3.97;;;;;;;14.71;100.00;101081.97;2100734;28;20496;-78
2023/04/29 03:17:50;;;;;;;6.80;3.58;;;;;;;14.75;100.00;101101.50;2103432;28;20136;-78
2023/04/29 03:19:12;;;;;;;8.80;3.90;;;;;;;14.76;100.00;101095.31;2103060;28;20066;-78
2023/04/29 03:20:34;;;;;;;8.45;3.97;;;;;;;14.76;100.00;101095.31;2094574;28;20098;-77
2023/04/29 03:21:58;;;;;;;11.27;3.60;;;;;;;14.77;100.00;101104.19;2092293;28;20416;-78
2023/04/29 03:23:21;;;;;;;8.15;3.83;;;;;;;14.75;100.00;101097.06;2091684;28;20059;-78
2023/04/29 03:24:43;;;;;;;11.40;4.20;;;;;;;14.75;100.00;101101.50;2091984;28;20127;-78
2023/04/29 03:26:06;;;;;;;8.85;3.70;;;;;;;14.76;100.00;101097.97;2091957;28;20097;-77
2023/04/29 03:27:30;;;;;;;11.85;4.40;;;;;;;14.75;100.00;101096.19;2092138;28;20049;-77
2023/04/29 03:28:51;;;;;;;11.07;5.10;;;;;;;14.75;100.00;101104.16;2091877;28;20040;-78
2023/04/29 03:30:13;;;;;;;9.32;4.38;;;;;;;14.75;100.00;101104.16;2094525;28;20040;-77
2023/04/29 03:31:43;;;;;;;7.93;4.20;;;;;;;14.74;100.00;101111.25;2095529;28;20101;-78
2023/04/29 03:33:06;;;;;;;9.30;4.32;;;;;;;14.75;100.00;101106.81;2094550;28;20075;-77
2023/04/29 03:34:28;;;;;;;11.18;4.75;;;;;;;14.76;100.00;101105.94;2088910;28;20090;-77
2023/04/29 03:36:16;;;;;;;9.73;3.72;;;;;;;14.76;100.00;101105.94;2090592;28;20049;-78
2023/04/29 03:37:55;;;;;;;12.27;4.50;;;;;;;14.77;100.00;101110.34;2104812;28;20098;-78
2023/04/29 03:39:22;;;;;;;8.65;4.25;;;;;;;14.76;100.00;101105.94;2086729;28;20037;-77
2023/04/29 03:40:44;;;;;;;9.07;4.20;;;;;;;14.78;100.00;101114.78;2092392;28;20048;-77
2023/04/29 03:42:06;;;;;;;8.82;4.10;;;;;;;14.81;100.00;101112.16;2090617;28;20044;-75
2023/04/29 03:43:31;;;;;;;7.78;4.07;;;;;;;14.82;100.00;101118.38;2096836;28;20052;-75
2023/04/29 03:44:53;;;;;;;9.30;4.30;;;;;;;14.83;100.00;101113.06;2087485;28;20468;-75
2023/04/29 03:46:16;;;;;;;8.57;4.20;;;;;;;14.85;100.00;101110.38;2091940;28;20385;-75
2023/04/29 03:47:38;;;;;;;8.38;4.07;;;;;;;14.85;100.00;101107.72;2094399;28;20041;-75
2023/04/29 03:49:01;;;;;;;8.68;3.72;;;;;;;14.87;100.00;101093.56;2102611;28;20419;-75
2023/04/29 03:50:22;;;;;;;9.15;4.47;;;;;;;14.90;100.00;101112.16;2091992;28;20385;-75
2023/04/29 03:51:46;;;;;;;8.80;4.40;;;;;;;14.92;100.00;101109.53;2091522;28;20048;-74
2023/04/29 03:53:10;;;;;;;10.63;4.40;;;;;;;14.96;100.00;101114.00;2102074;28;20463;-75
2023/04/29 03:54:34;;;;;;;8.20;4.30;;;;;;;14.99;100.00;101106.91;2087055;28;20049;-75
2023/04/29 03:55:55;;;;;;;9.73;3.72;;;;;;;15.01;100.00;101107.81;2095984;28;20068;-75
2023/04/29 03:57:18;;;;;;;9.98;4.03;;;;;;;15.05;100.00;101108.69;2101679;28;20058;-75
2023/04/29 03:58:41;;;;;;;9.10;3.63;;;;;;;15.08;100.00;101103.38;2094452;28;20052;-76
2023/04/29 04:00:05;;;;;;;12.02;3.90;;;;;;;15.12;100.00;101102.50;2093375;28;20623;-75
2023/04/29 04:01:35;;;;;;;9.73;4.35;;;;;;;15.15;100.00;101106.06;2102507;28;20048;-75
2023/04/29 04:02:58;;;;;;;10.40;3.83;;;;;;;15.20;100.00;101094.53;2092769;28;20849;-75
2023/04/29 04:04:19;;;;;;;9.20;4.07;;;;;;;15.27;100.00;101097.22;2091199;28;20072;-75
2023/04/29 04:05:44;;;;;;;12.30;3.97;;;;;;;15.34;100.00;101098.13;2100658;28;20044;-75
2023/04/29 04:07:10;;;;;;;15.38;3.85;;;;;;;15.40;100.00;101104.34;2093953;28;20048;-76
2023/04/29 04:08:52;;;;;;;8.57;3.85;;;;;;;15.44;100.00;101098.13;2103900;28;20156;-74
2023/04/29 04:10:19;;;;;;;8.45;3.33;;;;;;;15.46;100.00;101092.81;2094560;28;20544;-74
2023/04/29 04:11:42;;;;;;;7.60;3.28;;;;;;;15.51;100.00;101101.69;2090806;28;20041;-75
2023/04/29 04:13:03;;;;;;;12.27;4.10;;;;;;;15.57;100.00;101103.47;2090976;28;20039;-76
2023/04/29 04:14:27;;;;;;;8.13;3.50;;;;;;;15.59;100.00;101089.31;2092505;28;20056;-74
2023/04/29 04:15:50;;;;;;;7.93;3.88;;;;;;;15.60;100.00;101095.50;2102837;28;20044;-74
2023/04/29 04:17:12;;;;;;;7.95;3.90;;;;;;;15.65;100.00;101109.72;2095442;28;20056;-74
2023/04/29 04:18:35;;;;;;;8.77;3.60;;;;;;;15.71;100.00;101105.28;2093303;28;20147;-75
2023/04/29 04:19:57;;;;;;;7.57;3.50;;;;;;;15.77;100.00;101104.38;2093515;28;20036;-76
2023/04/29 04:21:20;;;;;;;9.45;3.88;;;;;;;15.81;100.00;101111.50;2091181;28;20098;-75
2023/04/29 04:22:49;;;;;;;6.80;3.20;;;;;;;15.82;100.00;101111.47;2092703;28;20461;-76
2023/04/29 04:24:17;;;;;;;9.90;3.58;;;;;;;15.82;100.00;101108.81;2091573;28;20110;-75
2023/04/29 04:25:39;;;;;;;6.20;3.60;;;;;;;15.84;100.00;101112.38;2089628;28;20165;-75
2023/04/29 04:27:19;;;;;;;9.93;3.80;;;;;;;15.86;100.00;101101.72;2094668;28;20207;-75
2023/04/29 04:28:42;;;;;;;11.45;3.72;;;;;;;15.90;100.00;101101.72;2097104;28;20125;-75
2023/04/29 04:30:12;;;;;;;5.18;3.40;;;;;;;15.99;100.00;101107.94;2093382;28;20055;-75
2023/04/29 04:31:35;;;;;;;10.77;3.25;;;;;;;16.03;100.00;101099.03;2090111;28;20916;-75
2023/04/29 04:32:57;;;;;;;11.52;3.42;;;;;;;16.02;97.19;101110.56;2089543;28;20032;-75
2023/04/29 04:34:20;;;;;;;7.78;3.17;;;;;;;16.03;96.20;101107.91;2092828;28;20048;-75
2023/04/29 04:35:45;;;;;;;8.05;2.70;;;;;;;16.08;93.65;101111.44;2091916;28;20079;-75
2023/04/29 04:37:08;;;;;;;8.50;3.58;;;;;;;16.15;92.72;101099.00;2099995;28;20048;-75
2023/04/29 04:38:31;;;;;;;5.30;2.90;;;;;;;16.23;92.60;101116.75;2088348;28;20563;-75
2023/04/29 04:39:55;;;;;;;10.45;3.55;;;;;;;16.33;93.97;101112.31;2094071;28;20158;-75
2023/04/29 04:41:17;;;;;;;6.65;3.33;;;;;;;16.45;94.87;101114.06;2089725;28;20063;-76
2023/04/29 04:42:42;;;;;;;7.70;3.17;;;;;;;16.48;94.87;101108.69;2090490;28;20649;-76
2023/04/29 04:44:09;;;;;;;7.45;3.05;;;;;;;16.49;95.65;101111.38;2099887;28;20058;-76
2023/04/29 04:45:50;;;;;;;8.07;3.35;;;;;;;16.55;96.83;101113.13;2087484;28;20069;-75
2023/04/29 04:47:13;;;;;;;8.20;3.65;;;;;;;16.63;96.83;101114.03;2085203;28;21752;-75
2023/04/29 04:48:44;;;;;;;6.65;3.00;;;;;;;16.71;95.95;101126.44;2093850;28;20479;-76
2023/04/29 04:50:09;;;;;;;6.85;3.20;;;;;;;16.78;95.30;101121.97;2089746;28;20066;-75
2023/04/29 04:51:33;;;;;;;11.25;3.50;;;;;;;16.90;95.05;101129.03;2094258;28;20059;-75
2023/04/29 04:52:55;;;;;;;8.27;3.33;;;;;;;16.94;93.90;101123.66;2093449;28;20078;-75
2023/04/29 04:54:46;;;;;;;7.20;2.55;;;;;;;16.93;90.31;101129.03;2098652;28;20048;-75
2023/04/29 04:56:13;;;;;;;7.85;3.00;;;;;;;16.95;88.28;101114.78;2097808;28;20047;-75
2023/04/29 04:57:35;;;;;;;7.07;3.25;;;;;;;17.02;87.49;101116.53;2093159;28;20051;-75
2023/04/29 04:58:58;;;;;;;7.45;2.75;;;;;;;17.03;87.09;101098.72;2092488;28;20524;-75
2023/04/29 05:00:20;;;;;;;9.52;2.97;;;;;;;17.00;87.41;101117.44;2095243;28;20045;-75
2023/04/29 05:01:44;;;;;;;6.07;2.83;;;;;;;17.03;87.08;101109.41;2092566;28;20124;-75
2023/04/29 05:03:06;;;;;;;7.15;3.30;;;;;;;17.00;86.17;101120.97;2091370;28;20049;-76
2023/04/29 05:04:28;;;;;;;11.18;3.25;;;;;;;16.97;85.80;101129.00;2096456;28;20459;-76
2023/04/29 05:05:53;;;;;;;6.78;2.83;;;;;;;17.00;86.44;101115.63;2099053;28;20043;-75
2023/04/29 05:07:15;;;;;;;8.10;3.15;;;;;;;16.98;86.10;101119.22;2092908;28;20524;-75
2023/04/29 05:08:58;;;;;;;9.15;3.55;;;;;;;17.07;87.32;101124.50;2104742;28;20066;-75
2023/04/29 05:10:25;;;;;;;9.98;2.80;;;;;;;17.21;86.54;101114.63;2093866;28;20087;-75
2023/04/29 05:11:47;;;;;;;9.07;3.45;;;;;;;17.31;84.90;101119.03;2095038;28;20716;-76
2023/04/29 05:13:12;;;;;;;7.22;2.65;;;;;;;17.40;84.83;101123.41;2093812;28;20494;-76
2023/04/29 05:14:35;;;;;;;6.63;2.80;;;;;;;17.51;83.67;101111.78;2091015;28;20597;-76
2023/04/29 05:15:56;;;;;;;6.78;2.70;;;;;;;17.63;81.89;101116.16;2102069;28;20040;-76
2023/04/29 05:17:24;;;;;;;6.95;2.90;;;;;;;17.75;80.73;101115.19;2094103;28;20174;-76
2023/04/29 05:18:45;;;;;;;9.38;2.97;;;;;;;17.86;80.53;101114.19;2093805;28;20105;-77
2023/04/29 05:20:09;;;;;;;6.35;2.28;;;;;;;18.04;79.29;101106.94;2099331;28;20044;-76
2023/04/29 05:21:30;;;;;;;6.13;2.50;;;;;;;18.16;75.60;101114.81;2102159;28;20543;-76
2023/04/29 05:22:54;;;;;;;7.43;2.85;;;;;;;18.31;74.25;101110.19;2102296;28;20044;-76
2023/04/29 05:24:17;;;;;;;5.75;2.78;;;;;;;18.49;73.77;101105.56;2093923;28;20056;-77
2023/04/29 05:25:40;;;;;;;6.47;2.95;;;;;;;18.67;74.36;101108.94;2091222;28;20135;-76
2023/04/29 05:27:03;;;;;;;8.60;2.78;;;;;;;18.85;73.72;101113.16;2091030;28;20443;-76
2023/04/29 05:28:25;;;;;;;8.52;2.80;;;;;;;19.01;73.55;101111.19;2090457;28;20076;-76
2023/04/29 05:29:46;;;;;;;6.28;2.42;;;;;;;19.19;72.97;101113.59;2083137;28;20037;-77
2023/04/29 05:31:10;;;;;;;7.03;2.97;;;;;;;19.37;71.83;101117.78;2082938;28;20139;-75
2023/04/29 05:32:34;;;;;;;7.93;2.83;;;;;;;19.45;69.92;101119.47;2083048;28;20053;-76
2023/04/29 05:33:56;;;;;;;8.57;2.45;;;;;;;19.53;69.18;101111.34;2083189;28;20135;-77
2023/04/29 05:35:19;;;;;;;9.75;2.80;;;;;;;19.60;65.43;101123.75;2091169;28;20040;-76
2023/04/29 05:36:41;;;;;;;7.47;2.65;;;;;;;19.65;62.79;101123.66;2085223;28;20072;-77
2023/04/29 05:38:03;;;;;;;9.73;2.85;;;;;;;19.67;63.72;101120.06;2082867;28;20045;-76
2023/04/29 05:39:37;;;;;;;8.45;2.70;;;;;;;19.70;66.64;101128.03;2100519;28;20047;-76
2023/04/29 05:41:06;;;;;;;7.53;2.90;;;;;;;19.81;67.07;101128.75;2091067;28;20109;-76
2023/04/29 05:42:42;;;;;;;6.18;2.40;;;;;;;19.84;66.31;101142.09;2095379;28;20045;-77
2023/04/29 05:44:06;;;;;;;10.32;3.00;;;;;;;19.92;66.97;101149.13;2088869;28;20040;-76
2023/04/29 05:45:27;;;;;;;8.10;2.92;;;;;;;20.01;65.51;101128.41;2090871;28;20049;-76
2023/04/29 05:46:50;;;;;;;9.27;2.50;;;;;;;20.13;63.91;101143.41;2107413;28;20032;-77
2023/04/29 05:48:15;;;;;;;9.07;2.88;;;;;;;20.26;62.66;101144.97;2095581;28;20048;-76
2023/04/29 05:49:39;;;;;;;7.50;2.35;;;;;;;20.32;62.95;101146.63;2091421;28;20076;-76
2023/04/29 05:51:02;;;;;;;4.53;2.47;;;;;;;20.42;61.40;101137.53;2088754;28;20092;-75
2023/04/29 05:52:24;;;;;;;6.18;2.03;;;;;;;20.38;60.92;101135.81;2083049;28;20087;-76
2023/04/29 05:53:46;;;;;;;6.47;2.13;;;;;;;20.28;60.80;101124.38;2087809;28;20501;-76
2023/04/29 05:55:08;;;;;;;5.57;2.42;;;;;;;20.28;60.79;101138.63;2100929;28;20072;-75
2023/04/29 05:56:32;;;;;;;6.85;2.40;;;;;;;20.35;60.38;101152.84;2092185;28;20059;-76
2023/04/29 05:57:54;;;;;;;8.15;2.60;;;;;;;20.40;60.17;101151.00;2091104;28;20041;-76
2023/04/29 05:59:17;;;;;;;6.53;2.58;;;;;;;20.33;61.93;101140.41;2099232;28;20048;-76
2023/04/29 06:00:48;;;;;;;7.78;2.55;;;;;;;20.33;62.49;101137.72;2093675;28;20572;-76
2023/04/29 06:02:16;;;;;;;6.18;2.47;;;;;;;20.45;62.50;101145.53;2090334;28;20536;-76
2023/04/29 06:03:41;;;;;;;7.40;2.53;;;;;;;20.62;62.79;101141.59;2089547;28;20037;-75
2023/04/29 06:05:24;;;;;;;7.43;2.60;;;;;;;20.71;61.48;101127.13;2079563;28;20049;-75
2023/04/29 06:07:25;;;;;;;9.30;2.53;;;;;;;20.66;62.59;101148.69;2088257;28;20040;-76
2023/04/29 06:08:55;;;;;;;9.32;2.50;;;;;;;20.76;61.35;101138.66;2091547;28;20047;-76
2023/04/29 06:10:22;;;;;;;8.93;2.35;;;;;;;20.81;59.05;101149.28;2091671;28;20040;-76
2023/04/29 06:11:44;;;;;;;5.55;2.42;;;;;;;20.89;58.66;101144.63;2095320;28;20067;-76
2023/04/29 06:13:06;;;;;;;6.60;2.50;;;;;;;20.91;58.78;101150.88;2096949;28;20044;-77
2023/04/29 06:14:29;;;;;;;7.25;2.85;;;;;;;20.90;59.51;101149.09;2094774;28;20048;-76
2023/04/29 06:15:51;;;;;;;9.60;2.47;;;;;;;20.88;60.25;101143.75;2090794;28;20044;-77
2023/04/29 06:17:14;;;;;;;8.52;2.90;;;;;;;20.73;61.75;101151.25;2091436;28;20480;-76
2023/04/29 06:18:37;;;;;;;11.70;2.53;;;;;;;20.76;63.24;101160.13;2091336;28;20040;-77
2023/04/29 06:20:01;;;;;;;7.50;2.50;;;;;;;20.90;63.30;101158.03;2091904;28;20048;-77
2023/04/29 06:21:24;;;;;;;10.30;2.72;;;;;;;21.04;62.78;101155.97;2102975;28;20881;-77
2023/04/29 06:22:46;;;;;;;8.77;2.72;;;;;;;21.17;61.86;101166.47;2093045;28;20044;-76
2023/04/29 06:24:08;;;;;;;8.48;2.50;;;;;;;21.31;58.92;101159.00;2091208;28;20056;-77
2023/04/29 06:25:31;;;;;;;8.25;2.60;;;;;;;21.44;56.85;101164.06;2096824;28;20075;-76
2023/04/29 06:26:57;;;;;;;6.55;2.28;;;;;;;21.57;55.18;101174.53;2095369;28;20055;-76
2023/04/29 06:28:22;;;;;;;7.32;2.33;;;;;;;21.55;54.12;101153.06;2092371;28;20118;-77
2023/04/29 06:29:45;;;;;;;5.85;2.10;;;;;;;21.48;53.22;101160.38;2094774;28;20093;-77
2023/04/29 06:31:07;;;;;;;6.40;2.28;;;;;;;21.48;54.38;101168.44;2093685;28;20056;-76
2023/04/29 06:32:29;;;;;;;5.63;2.45;;;;;;;21.56;53.87;101160.22;2097201;28;20041;-77